Time;durP1;ratioP1;P1;durP2;ratioP2;P2;SDS_P1;SDS_P2;PMS_P1;PMS_P2;Temp;Humidity;BMP_temperature;BMP_pressure;BME280_temperature;BME280_humidity;BME280_pressure;Samples;Min_cycle;Max_cycle;Signal;HPM_P1;HPM_P2
2021/03/20 00:00:11;;;;;;;;;;;;;;;2.33;55.96;96608.84;1771115;80;20230;-63
2021/03/20 00:02:38;;;;;;;;;;;;;;;2.27;55.73;96603.52;1757342;80;20220;-64
2021/03/20 00:05:08;;;;;;;;;;;;;;;2.21;56.02;96606.30;1760908;80;20222;-65
2021/03/20 00:07:35;;;;;;;;;;;;;;;2.20;56.17;96604.62;1754163;80;21193;-64
2021/03/20 00:10:05;;;;;;;;;;;;;;;2.19;56.29;96605.08;1777233;80;20239;-61
2021/03/20 00:12:32;;;;;;;;;;;;;;;2.20;56.09;96604.62;1756722;80;20533;-64
2021/03/20 00:15:00;;;;;;;;;;;;;;;2.19;56.01;96605.08;1777141;80;20246;-64
2021/03/20 00:17:28;;;;;;;;;;;;;;;2.20;56.03;96616.14;1778595;80;20392;-61
2021/03/20 00:19:56;;;;;;;;;;;;;;;2.20;56.07;96613.58;1760387;80;21385;-62
2021/03/20 00:22:23;;;;;;;;;;;;;;;2.19;55.96;96611.93;1779567;80;20763;-60
2021/03/20 00:24:50;;;;;;;;;;;;;;;2.15;55.90;96608.63;1766248;80;20240;-60
2021/03/20 00:27:18;;;;;;;;;;;;;;;2.14;55.88;96615.11;1779408;80;20221;-60
2021/03/20 00:29:45;;;;;;;;;;;;;;;2.11;55.79;96613.94;1758081;80;20284;-60
2021/03/20 00:32:12;;;;;;;;;;;;;;;2.05;55.76;96611.14;1758540;80;21410;-60
2021/03/20 00:34:41;;;;;;;;;;;;;;;2.02;55.88;96609.96;1748921;82;20227;-67
2021/03/20 00:37:08;;;;;;;;;;;;;;;2.06;56.06;96612.81;1775607;80;20560;-61
2021/03/20 00:39:36;;;;;;;;;;;;;;;2.09;56.00;96608.02;1759610;80;20236;-62
2021/03/20 00:44:44;;;;;;;;;;;;;;;2.14;55.98;96609.53;1753443;82;21298;-60
2021/03/20 00:47:11;;;;;;;;;;;;;;;2.17;55.86;96609.84;1768866;81;20219;-62
2021/03/20 00:49:39;;;;;;;;;;;;;;;2.17;55.83;96606.86;1771024;79;20232;-63
2021/03/20 00:52:06;;;;;;;;;;;;;;;2.17;55.89;96607.29;1750088;79;20285;-61
2021/03/20 00:54:34;;;;;;;;;;;;;;;2.15;55.86;96609.91;1739795;82;20550;-63
2021/03/20 00:57:02;;;;;;;;;;;;;;;2.15;55.90;96610.36;1764182;79;21102;-64
2021/03/20 00:59:29;;;;;;;;;;;;;;;2.14;56.00;96607.42;1746853;81;20242;-65
2021/03/20 01:01:57;;;;;;;;;;;;;;;2.14;55.88;96604.87;1739903;81;20579;-65
2021/03/20 01:04:25;;;;;;;;;;;;;;;2.15;56.03;96609.08;1785144;79;20214;-64
2021/03/20 01:06:52;;;;;;;;;;;;;;;2.15;55.99;96614.20;1788807;79;20522;-64
2021/03/20 01:09:22;;;;;;;;;;;;;;;2.11;55.99;96607.53;1800682;79;21199;-65
2021/03/20 01:11:49;;;;;;;;;;;;;;;2.08;56.22;96609.75;1793103;79;20239;-65
2021/03/20 01:14:17;;;;;;;;;;;;;;;2.07;56.40;96612.36;1795528;79;20223;-65
2021/03/20 01:16:45;;;;;;;;;;;;;;;2.08;56.54;96611.48;1797854;79;20208;-65
2021/03/20 01:19:13;;;;;;;;;;;;;;;2.11;56.59;96608.81;1798993;79;20371;-62
2021/03/20 01:21:40;;;;;;;;;;;;;;;2.12;56.39;96612.60;1787441;79;22178;-62
2021/03/20 01:24:08;;;;;;;;;;;;;;;2.11;56.36;96615.22;1782984;79;20222;-63
2021/03/20 01:26:36;;;;;;;;;;;;;;;2.08;56.52;96614.05;1783658;79;20246;-62
2021/03/20 01:29:04;;;;;;;;;;;;;;;2.06;56.60;96615.38;1800442;79;20212;-63
2021/03/20 01:31:31;;;;;;;;;;;;;;;2.05;56.68;96612.41;1800776;79;20507;-63
2021/03/20 01:33:59;;;;;;;;;;;;;;;2.07;56.77;96615.75;1792525;79;22276;-66
2021/03/20 01:36:26;;;;;;;;;;;;;;;2.11;56.74;96615.22;1803291;79;20258;-62
2021/03/20 01:38:54;;;;;;;;;;;;;;;2.12;56.79;96623.27;1797731;79;20204;-63
2021/03/20 01:41:23;;;;;;;;;;;;;;;2.12;56.78;96620.70;1801801;79;20236;-63
2021/03/20 01:43:52;;;;;;;;;;;;;;;2.07;56.68;96627.27;1796456;80;20224;-65
2021/03/20 01:46:40;;;;;;;;;;;;;;;1.98;56.72;96623.77;1795221;79;21193;-64
2021/03/20 01:49:27;;;;;;;;;;;;;;;1.90;56.87;96626.59;1798923;79;20212;-62
2021/03/20 01:52:07;;;;;;;;;;;;;;;1.88;57.21;96628.38;1778689;80;20221;-64
2021/03/20 01:54:57;;;;;;;;;;;;;;;1.91;57.31;96623.16;1809116;79;20880;-64
2021/03/20 01:57:30;;;;;;;;;;;;;;;1.95;57.12;96627.27;1814058;79;20252;-62
2021/03/20 01:59:58;;;;;;;;;;;;;;;1.93;57.16;96627.77;1788454;79;21222;-63
2021/03/20 02:02:25;;;;;;;;;;;;;;;1.94;57.08;96624.34;1798135;79;20425;-63
2021/03/20 02:04:54;;;;;;;;;;;;;;;1.91;56.89;96623.16;1792618;79;20239;-67
2021/03/20 02:07:22;;;;;;;;;;;;;;;1.86;57.22;96623.77;1784928;79;20242;-67
2021/03/20 02:09:51;;;;;;;;;;;;;;;1.89;57.59;96623.66;1793569;79;20208;-67
2021/03/20 02:12:28;;;;;;;;;;;;;;;1.89;57.22;96632.63;1783767;79;22629;-67
2021/03/20 02:15:17;;;;;;;;;;;;;;;1.86;57.53;96636.98;1808035;79;20236;-67
2021/03/20 02:17:50;;;;;;;;;;;;;;;1.90;57.48;96636.83;1793110;79;20220;-65
2021/03/20 02:20:36;;;;;;;;;;;;;;;1.94;57.62;96637.55;1796899;80;20235;-66
2021/03/20 02:23:30;;;;;;;;;;;;;;;1.92;57.28;96631.20;1784270;79;20218;-66
2021/03/20 02:26:06;;;;;;;;;;;;;;;1.89;56.96;96632.63;1788328;79;21069;-61
2021/03/20 02:28:43;;;;;;;;;;;;;;;1.86;56.99;96630.17;1798829;79;20557;-59
2021/03/20 02:31:23;;;;;;;;;;;;;;;1.89;57.02;96626.23;1799328;79;20222;-63
2021/03/20 02:34:00;;;;;;;;;;;;;;;1.92;57.21;96625.27;1787715;78;20208;-62
2021/03/20 02:36:39;;;;;;;;;;;;;;;1.94;56.73;96623.48;1786269;79;20265;-68
2021/03/20 02:39:16;;;;;;;;;;;;;;;1.92;56.70;96629.92;1782926;79;22074;-63
2021/03/20 02:41:55;;;;;;;;;;;;;;;1.96;56.53;96634.06;1892208;74;20270;-61
2021/03/20 02:44:25;;;;;;;;;;;;;;;1.91;56.69;96640.22;1842735;77;20144;-60
2021/03/20 02:46:57;;;;;;;;;;;;;;;1.95;56.81;96634.12;1806899;76;21214;-61
2021/03/20 02:49:32;;;;;;;;;;;;;;;2.00;56.45;96638.63;1846975;75;20132;-62
2021/03/20 02:52:08;;;;;;;;;;;;;;;2.00;56.38;96647.58;1867814;75;20239;-62
2021/03/20 02:54:48;;;;;;;;;;;;;;;1.99;56.25;96656.99;1847345;76;20219;-63
2021/03/20 02:57:19;;;;;;;;;;;;;;;1.91;56.19;96654.29;1860539;76;20127;-62
2021/03/20 02:59:50;;;;;;;;;;;;;;;1.90;56.47;96659.03;1819782;78;21356;-62
2021/03/20 03:02:17;;;;;;;;;;;;;;;1.92;56.28;96657.25;1830560;77;20209;-61
2021/03/20 03:04:54;;;;;;;;;;;;;;;1.89;56.10;96659.91;1817866;78;20210;-61
2021/03/20 03:07:25;;;;;;;;;;;;;;;1.74;56.25;96660.83;1821089;77;20228;-62
2021/03/20 03:10:02;;;;;;;;;;;;;;;1.61;56.61;96660.43;1824705;78;20236;-61
2021/03/20 03:12:36;;;;;;;;;;;;;;;1.60;56.84;96663.04;1836197;77;22145;-62
2021/03/20 03:15:10;;;;;;;;;;;;;;;1.67;56.92;96664.48;1855612;77;20269;-63
2021/03/20 03:17:39;;;;;;;;;;;;;;;1.75;56.72;96668.08;1830816;77;20504;-63
2021/03/20 03:20:16;;;;;;;;;;;;;;;1.76;56.81;96667.17;1807803;77;21053;-62
2021/03/20 03:22:47;;;;;;;;;;;;;;;1.78;56.80;96666.70;1820153;78;20259;-62
2021/03/20 03:25:15;;;;;;;;;;;;;;;1.82;56.79;96667.80;1824205;77;22181;-63
2021/03/20 03:27:45;;;;;;;;;;;;;;;1.85;56.71;96669.42;1823395;78;20204;-61
2021/03/20 03:30:14;;;;;;;;;;;;;;;1.86;56.74;96673.66;1828895;78;20219;-61
2021/03/20 03:32:47;;;;;;;;;;;;;;;1.89;56.72;96677.41;1829657;78;20236;-65
2021/03/20 03:35:30;;;;;;;;;;;;;;;1.88;56.56;96680.02;1794364;79;20210;-60
2021/03/20 03:38:04;;;;;;;;;;;;;;;1.81;56.91;96677.66;1754540;81;22276;-61
2021/03/20 03:40:44;;;;;;;;;;;;;;;1.78;57.15;96681.59;1748857;81;20217;-61
2021/03/20 03:43:11;;;;;;;;;;;;;;;1.80;57.18;96682.38;1745633;82;20222;-61
2021/03/20 03:45:38;;;;;;;;;;;;;;;1.79;57.22;96688.81;1749777;81;20216;-61
2021/03/20 03:48:07;;;;;;;;;;;;;;;1.80;57.28;96693.05;1731585;81;20240;-61
2021/03/20 03:50:36;;;;;;;;;;;;;;;1.80;57.15;96686.66;1735574;81;21211;-62
2021/03/20 03:53:04;;;;;;;;;;;;;;;1.79;57.28;96689.67;1761198;81;20790;-63
2021/03/20 03:55:31;;;;;;;;;;;;;;;1.76;57.23;96690.20;1754464;81;20226;-64
2021/03/20 03:58:36;;;;;;;;;;;;;;;1.72;57.45;96689.92;1730402;82;20318;-64
2021/03/20 04:01:19;;;;;;;;;;;;;;;1.69;57.61;96690.02;1760735;80;20531;-65
2021/03/20 04:03:59;;;;;;;;;;;;;;;1.59;57.70;96699.27;1724909;82;21939;-61
2021/03/20 04:06:47;;;;;;;;;;;;;;;1.43;57.91;96703.21;1729682;82;20488;-64
2021/03/20 04:09:39;;;;;;;;;;;;;;;1.35;58.18;96702.20;1718127;81;20239;-64
2021/03/20 04:12:10;;;;;;;;;;;;;;;1.31;58.50;96700.61;1719436;82;20219;-65
2021/03/20 04:15:05;;;;;;;;;;;;;;;1.32;58.54;96702.75;1762725;81;20213;-65
2021/03/20 04:17:51;;;;;;;;;;;;;;;1.26;58.76;96696.92;1714228;83;21376;-65
2021/03/20 04:20:23;;;;;;;;;;;;;;;1.20;58.97;96709.05;1717395;82;20223;-66
2021/03/20 04:22:56;;;;;;;;;;;;;;;1.11;59.26;96701.25;1724614;83;20219;-66
2021/03/20 04:25:45;;;;;;;;;;;;;;;1.06;59.47;96708.22;1724066;82;20289;-63
2021/03/20 04:28:40;;;;;;;;;;;;;;;1.04;59.84;96710.00;1773034;80;20288;-64
2021/03/20 04:31:17;;;;;;;;;;;;;;;1.07;60.00;96709.91;1757936;81;21234;-64
2021/03/20 04:33:51;;;;;;;;;;;;;;;1.10;59.94;96709.36;1714839;83;20245;-63
2021/03/20 04:36:24;;;;;;;;;;;;;;;1.10;60.10;96715.75;1677759;81;20232;-63
2021/03/20 04:38:51;;;;;;;;;;;;;;;1.14;60.20;96716.48;1738956;82;20582;-66
2021/03/20 04:41:18;;;;;;;;;;;;;;;1.18;60.28;96717.22;1759292;80;20289;-66
2021/03/20 04:43:46;;;;;;;;;;;;;;;1.17;60.36;96727.05;1792619;80;21350;-63
2021/03/20 04:46:16;;;;;;;;;;;;;;;1.15;60.11;96730.09;1791233;80;20222;-64
2021/03/20 04:48:46;;;;;;;;;;;;;;;1.09;60.29;96731.13;1765657;81;20268;-63
2021/03/20 04:51:26;;;;;;;;;;;;;;;1.09;60.48;96738.80;1765471;80;20490;-64
2021/03/20 04:54:06;;;;;;;;;;;;;;;1.06;60.61;96742.27;1795717;79;20274;-64
2021/03/20 04:56:37;;;;;;;;;;;;;;;1.07;60.71;96744.41;1790732;79;22103;-64
2021/03/20 04:59:07;;;;;;;;;;;;;;;1.08;60.82;96743.05;1783419;79;20219;-66
2021/03/20 05:01:40;;;;;;;;;;;;;;;1.08;60.99;96753.27;1760821;79;20427;-65
2021/03/20 05:04:25;;;;;;;;;;;;;;;1.11;60.98;96749.80;1774618;79;20507;-64
2021/03/20 05:06:53;;;;;;;;;;;;;;;1.08;61.25;96757.11;1767759;80;20271;-66
2021/03/20 05:09:22;;;;;;;;;;;;;;;1.11;61.38;96760.02;1774277;79;21362;-66
2021/03/20 05:11:57;;;;;;;;;;;;;;;1.18;61.27;96760.67;1761759;79;20222;-65
2021/03/20 05:14:36;;;;;;;;;;;;;;;1.24;61.11;96761.77;1748615;79;20230;-65
2021/03/20 05:17:09;;;;;;;;;;;;;;;1.32;60.99;96766.20;1759726;79;20265;-64
2021/03/20 05:19:37;;;;;;;;;;;;;;;1.41;60.80;96762.52;1776999;80;20219;-64
2021/03/20 05:22:05;;;;;;;;;;;;;;;1.48;60.62;96770.41;1776833;80;21224;-70
2021/03/20 05:24:35;;;;;;;;;;;;;;;1.50;60.56;96771.19;1779200;79;20232;-69
2021/03/20 05:27:04;;;;;;;;;;;;;;;1.55;60.38;96774.44;1801592;79;20234;-63
2021/03/20 05:29:31;;;;;;;;;;;;;;;1.59;60.48;96771.33;1783208;79;20274;-63
2021/03/20 05:31:59;;;;;;;;;;;;;;;1.61;60.33;96773.39;1776044;80;20510;-62
2021/03/20 05:34:36;;;;;;;;;;;;;;;1.53;60.62;96772.80;1775572;79;21160;-63
2021/03/20 05:37:04;;;;;;;;;;;;;;;1.53;60.85;96777.91;1780312;79;20223;-65
2021/03/20 05:39:31;;;;;;;;;;;;;;;1.57;60.86;96779.50;1775938;80;20232;-65
2021/03/20 05:42:28;;;;;;;;;;;;;;;1.63;60.90;96781.88;1760024;79;20253;-70
2021/03/20 05:45:29;;;;;;;;;;;;;;;1.68;60.49;96784.27;1761960;80;20217;-66
2021/03/20 05:48:17;;;;;;;;;;;;;;;1.65;60.19;96793.71;1761813;81;22404;-62
2021/03/20 05:51:08;;;;;;;;;;;;;;;1.64;60.57;96798.88;1776099;80;20241;-60
2021/03/20 05:54:01;;;;;;;;;;;;;;;1.66;60.66;96800.94;1779789;80;21099;-57
2021/03/20 05:56:54;;;;;;;;;;;;;;;1.74;60.68;96800.70;1765888;80;20248;-69
2021/03/20 05:59:27;;;;;;;;;;;;;;;1.80;60.35;96805.17;1767761;80;20238;-59
2021/03/20 06:02:13;;;;;;;;;;;;;;;1.82;60.33;96805.95;1760958;80;21393;-61
2021/03/20 06:04:54;;;;;;;;;;;;;;;1.83;60.47;96802.98;1765956;80;20251;-58
2021/03/20 06:07:29;;;;;;;;;;;;;;;1.90;60.35;96804.89;1767799;80;20531;-57
2021/03/20 06:10:10;;;;;;;;;;;;;;;1.98;60.17;96808.86;1762794;80;20226;-57
2021/03/20 06:12:54;;;;;;;;;;;;;;;2.05;59.97;96810.77;1779117;80;20213;-56
2021/03/20 06:15:44;;;;;;;;;;;;;;;2.12;59.76;96808.42;1780210;80;21164;-55
2021/03/20 06:18:31;;;;;;;;;;;;;;;2.18;59.34;96807.37;1768630;80;20237;-55
2021/03/20 06:21:36;;;;;;;;;;;;;;;2.27;59.06;96804.51;1775554;80;20240;-55
2021/03/20 06:24:19;;;;;;;;;;;;;;;2.40;58.72;96812.58;1766268;81;21123;-56
2021/03/20 06:26:54;;;;;;;;;;;;;;;2.61;58.16;96812.74;1847937;75;20146;-55
2021/03/20 06:29:28;;;;;;;;;;;;;;;2.66;57.65;96814.70;1815064;78;20227;-55
2021/03/20 06:32:03;;;;;;;;;;;;;;;2.80;57.51;96818.06;1817850;78;22053;-54
2021/03/20 06:34:37;;;;;;;;;;;;;;;2.94;57.09;96820.94;1817859;79;20512;-56
2021/03/20 06:37:07;;;;;;;;;;;;;;;3.13;56.76;96820.66;1786113;79;20507;-55
2021/03/20 06:39:43;;;;;;;;;;;;;;;3.38;56.12;96822.30;1784418;80;20246;-54
2021/03/20 06:42:21;;;;;;;;;;;;;;;3.59;55.55;96825.78;1783917;80;20139;-56
2021/03/20 06:44:56;;;;;;;;;;;;;;;3.85;54.97;96820.91;1813261;79;21185;-55
2021/03/20 06:47:28;;;;;;;;;;;;;;;4.16;54.05;96825.23;1815731;79;20137;-55
2021/03/20 06:50:05;;;;;;;;;;;;;;;4.36;53.53;96823.14;1782185;79;20243;-55
2021/03/20 06:52:35;;;;;;;;;;;;;;;4.67;52.74;96822.67;1769819;81;20472;-56
2021/03/20 06:55:13;;;;;;;;;;;;;;;4.89;52.30;96823.84;1769758;79;20191;-55
2021/03/20 06:57:40;;;;;;;;;;;;;;;4.98;51.81;96830.30;1763318;80;21204;-54
2021/03/20 07:00:24;;;;;;;;;;;;;;;4.97;51.29;96833.34;1774564;81;20226;-57
2021/03/20 07:03:15;;;;;;;;;;;;;;;4.86;51.39;96831.69;1779184;80;20494;-54
2021/03/20 07:05:50;;;;;;;;;;;;;;;4.89;51.40;96835.88;1785904;80;20219;-54
2021/03/20 07:08:40;;;;;;;;;;;;;;;4.86;51.26;96843.72;1784238;78;20506;-54
2021/03/20 07:11:19;;;;;;;;;;;;;;;4.90;50.96;96842.66;1753531;79;22693;-55
2021/03/20 07:13:51;;;;;;;;;;;;;;;5.02;50.79;96848.57;1758081;80;20219;-54
2021/03/20 07:16:20;;;;;;;;;;;;;;;5.15;50.38;96854.02;1780990;80;20215;-56
2021/03/20 07:18:51;;;;;;;;;;;;;;;5.21;49.99;96849.85;1785769;79;20238;-56
2021/03/20 07:21:28;;;;;;;;;;;;;;;5.31;49.80;96853.70;1791858;78;20502;-57
2021/03/20 07:23:59;;;;;;;;;;;;;;;5.35;49.45;96857.80;1789980;79;21359;-55
2021/03/20 07:26:26;;;;;;;;;;;;;;;5.32;49.58;96859.67;1793485;77;20270;-55
2021/03/20 07:28:56;;;;;;;;;;;;;;;5.24;49.40;96859.19;1769151;81;20234;-55
2021/03/20 07:31:23;;;;;;;;;;;;;;;5.15;49.69;96865.59;1768946;80;20219;-55
2021/03/20 07:33:54;;;;;;;;;;;;;;;5.12;49.89;96864.44;1741587;81;20233;-55
2021/03/20 07:36:37;;;;;;;;;;;;;;;5.12;49.63;96860.11;1745891;80;21244;-55
2021/03/20 07:39:19;;;;;;;;;;;;;;;5.08;49.84;96865.45;1795986;80;20170;-56
2021/03/20 07:41:55;;;;;;;;;;;;;;;5.00;50.08;96870.10;1788851;80;20573;-55
2021/03/20 07:44:27;;;;;;;;;;;;;;;4.95;50.42;96872.44;1786012;80;20231;-55
2021/03/20 07:46:56;;;;;;;;;;;;;;;4.94;50.30;96873.33;1777119;80;20513;-55
2021/03/20 07:49:27;;;;;;;;;;;;;;;4.97;50.26;96872.38;1741033;81;21259;-54
2021/03/20 07:51:57;;;;;;;;;;;;;;;5.00;49.83;96872.24;1740896;82;20238;-55
2021/03/20 07:54:27;;;;;;;;;;;;;;;4.94;49.61;96877.19;1741205;80;20257;-56
2021/03/20 07:57:16;;;;;;;;;;;;;;;4.81;49.95;96885.50;1772679;80;20290;-55
2021/03/20 07:59:51;;;;;;;;;;;;;;;4.85;50.24;96888.31;1741045;81;20241;-56
2021/03/20 08:02:34;;;;;;;;;;;;;;;4.90;49.92;96887.66;1761093;80;20552;-56
2021/03/20 08:05:04;;;;;;;;;;;;;;;4.86;49.44;96884.39;1787327;80;20231;-55
2021/03/20 08:07:49;;;;;;;;;;;;;;;4.69;49.51;96891.55;1787881;80;20207;-55
2021/03/20 08:10:22;;;;;;;;;;;;;;;4.64;49.69;96886.20;1787815;80;20294;-55
2021/03/20 08:12:51;;;;;;;;;;;;;;;4.69;49.40;96886.87;1787826;79;20226;-55
2021/03/20 08:15:22;;;;;;;;;;;;;;;4.74;48.79;96892.19;1768245;80;20676;-55
2021/03/20 08:17:49;;;;;;;;;;;;;;;4.81;48.88;96891.94;1770603;80;20246;-55
2021/03/20 08:20:19;;;;;;;;;;;;;;;4.94;48.75;96893.08;1787833;80;20491;-55
2021/03/20 08:23:02;;;;;;;;;;;;;;;5.02;48.53;96897.44;1787773;79;20226;-55
2021/03/20 08:25:39;;;;;;;;;;;;;;;5.10;48.19;96897.94;1784637;80;20230;-54
2021/03/20 08:28:22;;;;;;;;;;;;;;;5.21;48.33;96898.73;1805809;78;21217;-55
2021/03/20 08:31:05;;;;;;;;;;;;;;;5.41;47.78;96902.16;1753532;80;20226;-54
2021/03/20 08:33:48;;;;;;;;;;;;;;;5.55;46.85;96897.23;1749694;80;20242;-55
2021/03/20 08:36:26;;;;;;;;;;;;;;;5.52;46.81;96905.09;1744200;82;20222;-56
2021/03/20 08:39:13;;;;;;;;;;;;;;;5.52;46.42;96896.91;1746939;80;20573;-55
2021/03/20 08:42:19;;;;;;;;;;;;;;;5.57;45.82;96898.45;1781319;80;21274;-56
2021/03/20 08:44:59;;;;;;;;;;;;;;;5.61;45.62;96904.69;1786735;80;20278;-56
2021/03/20 08:47:53;;;;;;;;;;;;;;;5.77;44.81;96899.64;1751792;80;20277;-54
2021/03/20 08:50:52;;;;;;;;;;;;;;;5.90;44.68;96898.63;1744154;82;20226;-55
2021/03/20 08:53:32;;;;;;;;;;;;;;;6.22;44.21;96905.33;1750377;80;20213;-55
2021/03/20 08:56:22;;;;;;;;;;;;;;;6.67;43.70;96902.69;1757203;81;21116;-55
2021/03/20 08:59:01;;;;;;;;;;;;;;;7.08;42.58;96903.62;1744854;80;20254;-55
2021/03/20 09:01:38;;;;;;;;;;;;;;;7.38;42.11;96905.52;1761613;80;20289;-56
2021/03/20 09:04:08;;;;;;;;;;;;;;;7.60;41.46;96905.67;1781169;79;20234;-56
2021/03/20 09:06:45;;;;;;;;;;;;;;;7.73;41.17;96900.25;1782322;79;20338;-58
2021/03/20 09:09:33;;;;;;;;;;;;;;;7.76;40.87;96899.23;1766043;79;22369;-57
2021/03/20 09:12:08;;;;;;;;;;;;;;;7.66;40.23;96907.93;1770216;80;20236;-54
2021/03/20 09:14:38;;;;;;;;;;;;;;;7.54;40.44;96908.95;1698381;83;20245;-55
2021/03/20 09:17:17;;;;;;;;;;;;;;;7.49;40.26;96908.84;1696853;84;20247;-54
2021/03/20 09:19:57;;;;;;;;;;;;;;;7.52;40.60;96915.14;1725513;82;20503;-55
2021/03/20 09:22:28;;;;;;;;;;;;;;;7.55;39.71;96917.56;1720149;82;22300;-54
2021/03/20 09:24:58;;;;;;;;;;;;;;;7.59;39.81;96916.94;1714499;82;20244;-55
2021/03/20 09:28:01;;;;;;;;;;;;;;;7.62;39.45;96912.44;1726516;82;20286;-53
2021/03/20 09:30:35;;;;;;;;;;;;;;;7.62;39.74;96918.06;1731558;80;20515;-54
2021/03/20 09:33:06;;;;;;;;;;;;;;;7.47;39.21;96917.13;1722511;82;20295;-54
2021/03/20 09:35:39;;;;;;;;;;;;;;;7.34;39.15;96913.06;1711668;82;20222;-53
2021/03/20 09:38:07;;;;;;;;;;;;;;;7.21;39.19;96915.91;1724596;82;21016;-53
2021/03/20 09:40:38;;;;;;;;;;;;;;;7.09;39.17;96917.35;1732894;82;20261;-53
2021/03/20 09:43:27;;;;;;;;;;;;;;;7.30;38.41;96917.99;1735463;82;20243;-52
2021/03/20 09:46:26;;;;;;;;;;;;;;;7.77;38.73;96916.41;1695333;81;20234;-52
2021/03/20 09:48:55;;;;;;;;;;;;;;;8.78;37.55;96919.83;1698865;82;21156;-53
2021/03/20 09:51:58;;;;;;;;;;;;;;;10.07;36.10;96918.11;1738411;82;20236;-53
2021/03/20 09:54:43;;;;;;;;;;;;;;;11.21;34.34;96912.81;1733312;82;20524;-53
2021/03/20 09:59:46;;;;;;;;;;;;;;;12.25;31.02;96906.95;1737990;82;20284;-54
2021/03/20 10:02:24;;;;;;;;;;;;;;;12.18;30.95;96910.95;1720894;82;21205;-54
2021/03/20 10:05:03;;;;;;;;;;;;;;;11.86;30.58;96909.67;1742250;82;20243;-55
2021/03/20 10:07:35;;;;;;;;;;;;;;;11.44;31.28;96916.91;1740710;82;20228;-55
2021/03/20 10:10:17;;;;;;;;;;;;;;;11.58;31.06;96921.99;1738220;82;20258;-55
2021/03/20 10:12:51;;;;;;;;;;;;;;;12.14;30.73;96920.27;1728913;82;20211;-56
2021/03/20 10:15:37;;;;;;;;;;;;;;;13.24;29.37;96921.36;1728997;82;21208;-55
2021/03/20 10:18:12;;;;;;;;;;;;;;;14.12;27.39;96914.56;1732982;82;20578;-55
2021/03/20 10:20:55;;;;;;;;;;;;;;;14.84;27.03;96920.98;1727907;82;20569;-55
2021/03/20 10:23:42;;;;;;;;;;;;;;;15.68;25.86;96914.34;1731915;80;21231;-56
2021/03/20 10:26:45;;;;;;;;;;;;;;;16.40;24.45;96919.48;1731922;82;20313;-56
2021/03/20 10:29:23;;;;;;;;;;;;;;;16.61;24.00;96920.20;1710493;82;21218;-55
2021/03/20 10:31:52;;;;;;;;;;;;;;;16.28;24.05;96922.71;1721061;83;20223;-54
2021/03/20 10:34:22;;;;;;;;;;;;;;;15.53;24.79;96921.72;1714733;82;20249;-54
2021/03/20 10:37:06;;;;;;;;;;;;;;;14.83;24.98;96919.31;1710614;83;20479;-54
2021/03/20 10:39:38;;;;;;;;;;;;;;;14.04;26.05;96924.30;1693968;83;20257;-56
2021/03/20 10:42:18;;;;;;;;;;;;;;;13.20;26.86;96936.36;1709181;83;21388;-57
2021/03/20 10:44:47;;;;;;;;;;;;;;;12.57;27.63;96938.45;1721234;83;20354;-55
2021/03/20 10:47:23;;;;;;;;;;;;;;;11.98;28.59;96935.78;1724445;83;20248;-57
2021/03/20 10:50:26;;;;;;;;;;;;;;;11.46;28.99;96938.89;1709733;83;20229;-61
2021/03/20 10:52:54;;;;;;;;;;;;;;;10.81;29.88;96940.16;1719987;83;20235;-54
2021/03/20 10:55:25;;;;;;;;;;;;;;;10.31;30.60;96937.74;1698303;83;21932;-55
2021/03/20 10:57:52;;;;;;;;;;;;;;;9.94;30.70;96939.61;1714612;81;20257;-56
2021/03/20 11:00:26;;;;;;;;;;;;;;;9.63;30.67;96938.55;1725912;83;20228;-55
2021/03/20 11:02:53;;;;;;;;;;;;;;;9.30;30.97;96937.08;1722565;82;21989;-56
2021/03/20 11:05:24;;;;;;;;;;;;;;;9.05;31.23;96941.12;1678630;83;20235;-57
2021/03/20 11:08:22;;;;;;;;;;;;;;;8.86;31.67;96936.64;1720715;83;21142;-57
2021/03/20 11:10:54;;;;;;;;;;;;;;;8.61;31.99;96931.13;1731979;83;20497;-57
2021/03/20 11:13:33;;;;;;;;;;;;;;;8.38;32.86;96932.86;1705189;83;20248;-57
2021/03/20 11:16:06;;;;;;;;;;;;;;;8.82;32.90;96930.82;1728904;83;20688;-56
2021/03/20 11:18:43;;;;;;;;;;;;;;;9.56;32.81;96934.21;1726575;83;20506;-54
2021/03/20 11:21:17;;;;;;;;;;;;;;;10.11;31.64;96932.09;1714020;83;21205;-58
2021/03/20 11:23:45;;;;;;;;;;;;;;;10.68;30.93;96929.75;1715158;83;20534;-60
2021/03/20 11:26:27;;;;;;;;;;;;;;;11.07;30.60;96928.96;1710455;82;20218;-58
2021/03/20 11:28:54;;;;;;;;;;;;;;;11.09;30.42;96930.54;1735890;82;20223;-58
2021/03/20 11:31:21;;;;;;;;;;;;;;;10.88;30.22;96928.91;1732220;82;20257;-58
2021/03/20 11:33:49;;;;;;;;;;;;;;;10.63;30.77;96930.52;1739468;82;21200;-58
2021/03/20 11:36:22;;;;;;;;;;;;;;;10.37;30.49;96927.02;1730678;82;20226;-59
2021/03/20 11:38:49;;;;;;;;;;;;;;;9.80;30.81;96932.33;1733789;82;20215;-58
2021/03/20 11:41:22;;;;;;;;;;;;;;;9.29;31.43;96925.90;1730123;82;20577;-58
2021/03/20 11:44:02;;;;;;;;;;;;;;;8.82;32.49;96929.53;1727491;82;20222;-59
2021/03/20 11:46:33;;;;;;;;;;;;;;;8.53;32.93;96929.90;1725399;81;21207;-60
2021/03/20 11:49:16;;;;;;;;;;;;;;;8.26;33.50;96927.45;1729944;82;20222;-58
2021/03/20 11:51:45;;;;;;;;;;;;;;;8.16;34.07;96928.04;1739497;80;20243;-57
2021/03/20 11:54:35;;;;;;;;;;;;;;;8.11;34.08;96927.03;1731832;81;20224;-58
2021/03/20 11:57:07;;;;;;;;;;;;;;;8.08;33.89;96925.43;1726681;81;20227;-57
2021/03/20 11:59:40;;;;;;;;;;;;;;;7.98;33.90;96919.11;1748015;81;21206;-58
2021/03/20 12:02:14;;;;;;;;;;;;;;;7.90;33.68;96925.98;1757844;81;20703;-57
2021/03/20 12:04:42;;;;;;;;;;;;;;;7.84;33.42;96919.84;1740310;80;20235;-56
2021/03/20 12:07:24;;;;;;;;;;;;;;;7.79;33.11;96921.84;1731039;83;20227;-56
2021/03/20 12:09:52;;;;;;;;;;;;;;;7.72;33.18;96914.06;1731101;81;20234;-56
2021/03/20 12:12:42;;;;;;;;;;;;;;;7.59;33.84;96916.47;1736178;81;20311;-57
2021/03/20 12:15:25;;;;;;;;;;;;;;;7.57;34.40;96920.89;1699983;81;20229;-56
2021/03/20 12:17:55;;;;;;;;;;;;;;;7.59;34.12;96919.05;1746591;81;20221;-58
2021/03/20 12:20:43;;;;;;;;;;;;;;;7.60;34.04;96916.85;1741389;81;20216;-57
2021/03/20 12:23:24;;;;;;;;;;;;;;;7.64;33.42;96913.17;1760404;81;20250;-57
2021/03/20 12:25:54;;;;;;;;;;;;;;;7.63;33.36;96912.82;1760318;81;21274;-55
2021/03/20 12:28:37;;;;;;;;;;;;;;;7.79;32.91;96906.34;1748421;81;20219;-56
2021/03/20 12:31:16;;;;;;;;;;;;;;;8.15;32.61;96907.83;1739927;81;20721;-58
2021/03/20 12:34:05;;;;;;;;;;;;;;;8.90;31.96;96910.50;1724513;81;20234;-58
2021/03/20 12:36:37;;;;;;;;;;;;;;;9.64;30.87;96907.81;1727013;81;20234;-57
2021/03/20 12:39:09;;;;;;;;;;;;;;;10.05;29.89;96909.58;1738350;81;20499;-53
2021/03/20 12:41:36;;;;;;;;;;;;;;;10.13;29.87;96904.30;1706826;83;20309;-56
2021/03/20 12:44:17;;;;;;;;;;;;;;;10.11;30.06;96903.56;1713273;83;20224;-57
2021/03/20 12:46:46;;;;;;;;;;;;;;;9.93;30.40;96904.27;1738670;82;20254;-56
2021/03/20 12:49:29;;;;;;;;;;;;;;;9.58;32.09;96905.16;1732010;82;20270;-56
2021/03/20 12:52:02;;;;;;;;;;;;;;;9.24;32.08;96906.36;1719804;82;22272;-55
2021/03/20 12:54:32;;;;;;;;;;;;;;;8.94;32.73;96909.39;1723787;82;20225;-57
2021/03/20 12:56:59;;;;;;;;;;;;;;;8.74;33.51;96905.38;1724864;82;20239;-59
2021/03/20 12:59:27;;;;;;;;;;;;;;;8.63;33.89;96906.02;1732417;81;20244;-57
2021/03/20 13:01:56;;;;;;;;;;;;;;;8.47;34.13;96909.11;1732820;82;20539;-57
2021/03/20 13:04:24;;;;;;;;;;;;;;;8.18;34.13;96908.95;1731981;82;21332;-57
2021/03/20 13:06:54;;;;;;;;;;;;;;;7.85;34.33;96909.90;1738177;80;20277;-57
2021/03/20 13:09:22;;;;;;;;;;;;;;;7.51;34.43;96912.98;1724892;81;20218;-59
2021/03/20 13:11:49;;;;;;;;;;;;;;;7.30;34.82;96912.40;1732132;82;20222;-59
2021/03/20 13:14:17;;;;;;;;;;;;;;;7.21;34.83;96910.75;1740108;80;20222;-59
2021/03/20 13:16:46;;;;;;;;;;;;;;;7.09;34.69;96907.03;1732656;82;22012;-59
2021/03/20 13:19:14;;;;;;;;;;;;;;;6.92;34.64;96906.61;1732129;82;20224;-59
2021/03/20 13:21:43;;;;;;;;;;;;;;;6.81;34.76;96910.58;1730867;82;20601;-59
2021/03/20 13:24:10;;;;;;;;;;;;;;;6.68;35.40;96909.95;1734466;82;20536;-60
2021/03/20 13:26:37;;;;;;;;;;;;;;;6.87;35.48;96904.27;1728304;82;20230;-60
2021/03/20 13:29:05;;;;;;;;;;;;;;;7.25;34.71;96900.16;1730634;81;21319;-60
2021/03/20 13:31:33;;;;;;;;;;;;;;;7.70;33.92;96895.24;1729255;82;20326;-60
2021/03/20 13:34:01;;;;;;;;;;;;;;;8.10;33.04;96897.74;1733656;81;20311;-57
2021/03/20 13:36:30;;;;;;;;;;;;;;;8.41;32.16;96895.20;1735700;82;20498;-59
2021/03/20 13:38:57;;;;;;;;;;;;;;;8.63;32.12;96901.28;1726303;82;20223;-60
2021/03/20 13:41:24;;;;;;;;;;;;;;;8.83;32.26;96896.24;1746193;81;21148;-58